Hauptseite
METAR-TAF:

METAR-TAF

Flughäfen :

Flughafen Lugano-Agno

Lugano, Schweiz

Breite: 46-00N, Länge: 008-58E, Höhe: 273 m

Beobachtung

Neuester Wetterbericht von vor 11 Minuten, um 11:20 UTC
Wind 6 kt aus Süd/Südwest
Temperatur 30°C
Luftfeuchtigkeit 43%
Luftdruck 1014 hPa
Sichtweite 10 km oder mehr
keine Wolken unter 1500 m und keine Kumulonimbus oder Gewitterwolken

METAR: LSZA 191120Z 20006KT CAVOK 30/16 Q1014 NOSIG

Zeit: 13:31 (11:31 UTC)

Prognose

Neuester Wetterbericht von vor 3 Stunden und 6 Minuten, um 08:25 UTC
Gültige Prognose vom 19 um 09 UTC bis 19 um 18 UTC
Wind 3 kt aus unterschiedlichen Richtungen
Sichtweite 10 km oder mehr
keine Wolken unter 1500 m und keine Kumulonimbus oder Gewitterwolken
Übergehend zu
vom 19 um 09 UTC bis 19 um 11 UTC
Wind 8 kt aus Süd
Sichtweite 10 km oder mehr
Leicht bewölkt in der Höhe von 5000 ft

TAF: LSZA 190825Z 1909/1918 VRB03KT CAVOK BECMG 1909/1911 19008KT 9999 FEW050

Wetterbeobachtungen und Prognosen von mehr als 4000 Flughäfen (METAR und TAF Bericht).

Die verfügbaren Stationen werden durch gelbe und rote Markierungen auf der Karte dargestellt.

Führen Sie die Maus auf sie, um den Namen der Station zu sehen.

Darauf klicken, um die Beobachtung von Wetterbeobachtungen und Prognosen zu sehen.

Um die Karte zu ändern : klicken Sie auf den grünen Tasten mit einem schwarzen Kreuz Zum Vergrößern, auf den grünen Button mit einem Gedankenstrich zu verkleinern, oder auf die grünen Pfeile für benachbarte Karten.


METAR-TAF: